Language selection

My Weather Profile Weather Topics  | 

Juan de Fuca Strait - central strait: Past 24 Hour Conditions

 

Halibut Bank - 46146

04:00 AM PST 08 December 2022Buoy position: 49.34N 123.72W
Disclaimer

This table is a summary of hourly weather conditions for the past 24 hours.
Please note that these observations might not always be representative of weather conditions over their associated marine area.

Date / Time
(PST)
Wind(knots) Wave height(m) Wave period(s) Pressure(kPa) Air tempC) Water tempC)
08 December 2022
4:00 SE 21 gust 25 1.5 4.6 100.9 13 8
3:00 ESE 25 gust 31 1.5 5.0 100.9 13 8
2:00 ESE 28 gust 33 1.6 4.7 100.9 14 8
1:00 ESE 28 gust 35 1.6 4.8 100.9 14 8
0:00 ESE 29 gust 39 1.5 4.4 101.0 14 8
07 December 2022
23:00 ESE 26 gust 31 1.4 4.3 101.1 14 8
22:00 ESE 25 gust 32 1.2 4.7 101.2 14 8
21:00 ESE 25 gust 30 1.0 4.2 101.3 14 8
20:00 ESE 23 gust 28 0.9 3.9 101.3 14 8
19:00 E 19 gust 24 0.8 3.8 101.4 13 8
18:00 E 19 gust 24 0.7 3.7 101.5 13 8
17:00 E 17 gust 20 0.8 3.6 101.6 13 8
16:00 ESE 18 gust 22 0.8 3.9 101.6 13 8
15:00 ESE 19 gust 22 0.7 3.6 101.6 13 8
14:00 ESE 17 gust 22 0.6 3.3 101.7 13 8
13:00 ESE 17 gust 21 0.5 2.9 101.7 13 8
12:00 E 13 gust 16 0.4 2.9 101.8 13 8
11:00 E 16 gust 19 0.5 2.8 101.9 13 8
10:00 E 14 gust 17 N/A 2.8 102.0 13 8
9:00 E 15 gust 17 0.4 3.1 102.0 13 8
8:00 E 14 gust 16 0.4 3.0 102.0 13 8
7:00 E 14 gust 16 0.4 2.8 102.0 12 8
6:00 E 14 gust 16 0.3 2.3 102.0 12 8
5:00 E 10 gust 12 0.2 2.2 102.1 12 8
4:00 ESE 8 gust 10 0.2 2.2 102.1 12 8

Zoom-in to make a selection

Map of Pacific - Georgia Basin marine weather areas Sentry Shoal - 46131 Halibut Bank - 46146 La Perouse Bank - 46206 Georgia Strait - 46303 English Bay - 46304 Discovery Island Esquimalt Harbour Kelp Reefs Malahat Race Rocks Lightstation Saturna Island Sheringham Point University of Victoria Victoria Gonzales Victoria Int'l Airport Ballenas Islands Campbell River Airport Comox Airport Entrance Island Fanny Island Nanaimo Airport Sisters Islets Estevan Point Port Alberni Tofino Airport Grief Point Howe Sound - Pam Rocks Powell River Airport Sechelt Squamish Airport Point Atkinson Sand Heads Lightstation Tsawwassen Ferry Terminal Vancouver Int'l Airport Vancouver Harbour West Vancouver
Legend:
buoy Buoy
land station Land Station

Pacific - Georgia Basin Area

Another Region

What we are doing

Date modified: